Time;durP1;ratioP1;P1;durP2;ratioP2;P2;SDS_P1;SDS_P2;PMS_P1;PMS_P2;Temp;Humidity;BMP_temperature;BMP_pressure;BME280_temperature;BME280_humidity;BME280_pressure;Samples;Min_cycle;Max_cycle;Signal;HPM_P1;HPM_P2
2021/01/09 00:02:23;;;;;;;16.40;9.95;;;0.70;99.90;;;;;;5033023;28;20033;-67
2021/01/09 00:04:49;;;;;;;13.45;9.00;;;0.70;99.90;;;;;;5033814;28;20017;-65
2021/01/09 00:07:14;;;;;;;16.55;10.20;;;0.70;99.90;;;;;;5033721;28;20017;-65
2021/01/09 00:09:40;;;;;;;14.10;9.73;;;0.70;99.90;;;;;;5030188;28;20100;-65
2021/01/09 00:12:10;;;;;;;12.95;8.98;;;0.60;99.90;;;;;;5033330;28;20047;-65
2021/01/09 00:14:36;;;;;;;14.10;8.85;;;0.60;99.90;;;;;;5029227;28;20563;-64
2021/01/09 00:17:02;;;;;;;17.58;10.35;;;0.60;99.90;;;;;;5029265;28;20124;-65
2021/01/09 00:19:27;;;;;;;14.30;8.98;;;0.60;99.90;;;;;;5024664;28;20022;-66
2021/01/09 00:21:53;;;;;;;16.77;10.15;;;0.60;99.90;;;;;;5026271;28;20494;-64
2021/01/09 00:24:19;;;;;;;13.18;9.55;;;0.70;99.90;;;;;;5023102;28;20269;-65
2021/01/09 00:26:44;;;;;;;14.25;9.20;;;0.60;99.90;;;;;;5025137;28;20026;-65
2021/01/09 00:29:10;;;;;;;14.05;8.38;;;0.60;99.90;;;;;;5032512;28;20110;-65
2021/01/09 00:31:35;;;;;;;13.40;8.43;;;0.60;99.90;;;;;;5029158;28;20025;-68
2021/01/09 00:34:01;;;;;;;13.50;9.10;;;0.60;99.90;;;;;;5031879;28;20029;-64
2021/01/09 00:36:27;;;;;;;14.77;9.23;;;0.60;99.90;;;;;;5029111;28;20369;-63
2021/01/09 00:38:53;;;;;;;12.82;8.35;;;0.60;99.90;;;;;;5033577;28;20036;-65
2021/01/09 00:41:29;;;;;;;13.85;9.38;;;0.60;99.90;;;;;;5032554;28;20018;-65
2021/01/09 00:43:55;;;;;;;11.18;8.02;;;0.60;99.90;;;;;;5023973;28;20033;-67
2021/01/09 00:46:21;;;;;;;13.43;8.73;;;0.60;99.90;;;;;;5030593;28;20037;-66
2021/01/09 00:48:46;;;;;;;14.75;8.23;;;0.60;99.90;;;;;;5024487;28;20029;-68
2021/01/09 00:51:13;;;;;;;12.88;8.68;;;0.60;99.90;;;;;;5019615;28;20026;-67
2021/01/09 00:53:39;;;;;;;13.77;8.23;;;0.60;99.90;;;;;;5016394;28;20025;-64
2021/01/09 00:56:06;;;;;;;14.55;8.82;;;0.60;99.90;;;;;;5018863;28;20025;-66
2021/01/09 00:58:32;;;;;;;11.80;7.97;;;0.50;99.90;;;;;;5023010;28;20049;-63
2021/01/09 01:00:58;;;;;;;13.60;8.48;;;0.50;99.90;;;;;;5019229;28;20025;-64
2021/01/09 01:03:23;;;;;;;13.02;7.85;;;0.50;99.90;;;;;;5019130;28;20033;-65
2021/01/09 01:05:49;;;;;;;12.13;7.85;;;0.50;99.90;;;;;;5018118;28;20021;-64
2021/01/09 01:08:15;;;;;;;12.70;8.57;;;0.60;99.90;;;;;;5023229;28;20369;-68
2021/01/09 01:10:40;;;;;;;13.13;7.93;;;0.60;99.90;;;;;;5024832;28;20092;-62
2021/01/09 01:13:06;;;;;;;11.57;7.90;;;0.60;99.90;;;;;;5029790;28;20021;-65
2021/01/09 01:15:31;;;;;;;12.13;7.68;;;0.60;99.90;;;;;;5027249;28;20017;-65
2021/01/09 01:17:57;;;;;;;12.60;8.52;;;0.60;99.90;;;;;;5027822;28;20017;-66
2021/01/09 01:20:23;;;;;;;12.13;8.32;;;0.60;99.90;;;;;;5027234;28;20506;-65
2021/01/09 01:22:48;;;;;;;12.65;8.65;;;0.50;99.90;;;;;;5030556;28;20033;-65
2021/01/09 01:25:14;;;;;;;10.85;7.35;;;0.60;99.90;;;;;;5031009;28;20029;-64
2021/01/09 01:27:40;;;;;;;11.77;8.40;;;0.50;99.90;;;;;;5031236;28;20373;-66
2021/01/09 01:30:06;;;;;;;13.35;8.68;;;0.60;99.90;;;;;;5030513;28;20431;-65
2021/01/09 01:32:32;;;;;;;14.85;9.43;;;0.60;99.90;;;;;;5030948;28;20091;-65
2021/01/09 01:34:57;;;;;;;12.68;9.10;;;0.60;99.90;;;;;;5026336;28;20468;-68
2021/01/09 01:37:23;;;;;;;12.50;8.57;;;0.60;99.90;;;;;;5030719;28;20053;-65
2021/01/09 01:39:48;;;;;;;12.10;9.35;;;0.60;99.90;;;;;;5026740;28;20028;-66
2021/01/09 01:42:14;;;;;;;14.02;9.88;;;0.60;99.90;;;;;;5030298;28;20024;-66
2021/01/09 01:44:49;;;;;;;13.77;9.38;;;0.60;99.90;;;;;;5024757;28;20496;-66
2021/01/09 01:47:17;;;;;;;14.75;8.95;;;0.60;99.90;;;;;;5028665;28;20639;-66
2021/01/09 01:49:48;;;;;;;13.32;9.07;;;0.60;99.90;;;;;;5034933;28;20021;-62
2021/01/09 01:52:14;;;;;;;12.68;9.48;;;0.60;99.90;;;;;;5031835;28;20369;-66
2021/01/09 01:54:43;;;;;;;13.93;9.25;;;0.60;99.90;;;;;;5031871;28;20108;-67
2021/01/09 01:57:13;;;;;;;12.88;8.50;;;0.60;99.90;;;;;;5025423;28;20054;-64
2021/01/09 01:59:39;;;;;;;14.27;9.32;;;0.60;99.90;;;;;;5039460;28;20021;-64
2021/01/09 02:02:07;;;;;;;13.13;8.40;;;0.60;99.90;;;;;;5044828;28;20025;-65
2021/01/09 02:04:33;;;;;;;13.18;8.80;;;0.60;99.90;;;;;;5015332;28;20457;-65
2021/01/09 02:07:10;;;;;;;15.88;9.57;;;0.50;99.90;;;;;;5010775;28;20113;-66
2021/01/09 02:09:42;;;;;;;13.65;9.07;;;0.60;99.90;;;;;;5012155;28;20030;-64
2021/01/09 02:12:13;;;;;;;15.48;9.05;;;0.60;99.90;;;;;;5020788;28;20025;-64
2021/01/09 02:14:52;;;;;;;15.52;10.05;;;0.60;99.90;;;;;;5015081;28;20048;-66
2021/01/09 02:17:19;;;;;;;13.38;8.88;;;0.60;99.90;;;;;;5020883;28;20030;-66
2021/01/09 02:19:45;;;;;;;12.65;8.75;;;0.50;99.90;;;;;;5010501;28;20022;-64
2021/01/09 02:22:16;;;;;;;14.75;9.07;;;0.50;99.90;;;;;;5015109;28;20018;-67
2021/01/09 02:24:43;;;;;;;13.13;8.57;;;0.60;99.90;;;;;;5016161;28;20128;-65
2021/01/09 02:27:09;;;;;;;11.70;8.15;;;0.60;99.90;;;;;;5010386;28;20783;-64
2021/01/09 02:29:59;;;;;;;13.00;8.70;;;0.60;99.90;;;;;;5013992;28;20093;-62
2021/01/09 02:32:28;;;;;;;13.32;8.27;;;0.60;99.90;;;;;;5016251;28;20524;-62
2021/01/09 02:34:59;;;;;;;13.55;9.43;;;0.60;99.90;;;;;;5015460;28;20026;-67
2021/01/09 02:37:25;;;;;;;14.27;8.27;;;0.50;99.90;;;;;;5011687;28;20025;-67
2021/01/09 02:39:54;;;;;;;18.67;9.95;;;0.50;99.90;;;;;;5010978;28;20400;-64
2021/01/09 02:42:21;;;;;;;13.30;9.50;;;0.60;99.90;;;;;;5014845;28;20029;-64
2021/01/09 02:44:52;;;;;;;16.30;10.32;;;0.50;99.90;;;;;;5015667;28;20025;-68
2021/01/09 02:47:18;;;;;;;14.05;9.07;;;0.50;99.90;;;;;;5015935;28;20097;-64
2021/01/09 02:49:44;;;;;;;16.17;9.88;;;0.50;99.90;;;;;;5014873;28;20017;-64
2021/01/09 02:52:10;;;;;;;15.88;9.95;;;0.50;99.90;;;;;;5017633;28;20103;-67
2021/01/09 02:54:36;;;;;;;16.02;10.40;;;0.50;99.90;;;;;;5030448;28;20705;-62
2021/01/09 02:59:29;;;;;;;14.68;9.90;;;0.50;99.90;;;;;;5032197;28;20045;-48
2021/01/09 03:01:55;;;;;;;11.80;8.90;;;0.50;99.90;;;;;;5032351;28;20033;-50
2021/01/09 03:04:21;;;;;;;17.55;9.90;;;0.50;99.90;;;;;;5043569;28;20399;-51
2021/01/09 03:06:46;;;;;;;13.60;8.60;;;0.50;99.90;;;;;;5044385;28;20029;-51
2021/01/09 03:09:12;;;;;;;13.63;8.65;;;0.50;99.90;;;;;;5039055;28;20507;-51
2021/01/09 03:11:38;;;;;;;16.90;9.75;;;0.50;99.90;;;;;;5034033;28;20044;-49
2021/01/09 03:14:05;;;;;;;15.57;9.65;;;0.50;99.90;;;;;;5031354;28;20036;-48
2021/01/09 03:16:30;;;;;;;14.95;9.80;;;0.50;99.90;;;;;;5025879;28;20496;-47
2021/01/09 03:18:56;;;;;;;13.52;9.32;;;0.50;99.90;;;;;;5031517;28;20044;-48
2021/01/09 03:21:21;;;;;;;15.60;9.05;;;0.50;99.90;;;;;;5034678;28;20387;-48
2021/01/09 03:23:47;;;;;;;16.00;10.15;;;0.50;99.90;;;;;;5032785;28;20461;-50
2021/01/09 03:26:12;;;;;;;13.48;9.18;;;0.40;99.90;;;;;;5029937;28;20022;-48
2021/01/09 03:28:38;;;;;;;14.30;9.23;;;0.50;99.90;;;;;;5022868;28;20044;-48
2021/01/09 03:31:03;;;;;;;14.85;9.88;;;0.50;99.90;;;;;;5044290;28;20033;-48
2021/01/09 03:33:29;;;;;;;13.32;8.85;;;0.50;99.90;;;;;;5026602;28;20036;-51
2021/01/09 03:35:55;;;;;;;12.68;8.50;;;0.50;99.90;;;;;;5029880;28;20026;-48
2021/01/09 03:38:21;;;;;;;12.43;9.15;;;0.50;99.90;;;;;;5042636;28;20032;-50
2021/01/09 03:40:47;;;;;;;13.68;9.18;;;0.50;99.90;;;;;;5044743;28;20088;-50
2021/01/09 03:43:12;;;;;;;13.10;8.82;;;0.50;99.90;;;;;;5041014;28;20471;-50
2021/01/09 03:45:38;;;;;;;13.88;9.32;;;0.50;99.90;;;;;;5034324;28;20099;-51
2021/01/09 03:48:04;;;;;;;12.27;9.07;;;0.40;99.90;;;;;;5032482;28;20056;-50
2021/01/09 03:50:29;;;;;;;14.45;9.73;;;0.50;99.90;;;;;;5046335;28;20553;-54
2021/01/09 03:52:55;;;;;;;12.07;8.57;;;0.50;99.90;;;;;;5044733;28;20055;-50
2021/01/09 03:55:21;;;;;;;12.80;8.75;;;0.50;99.90;;;;;;5027954;28;20021;-49
2021/01/09 03:57:46;;;;;;;13.98;9.02;;;0.40;99.90;;;;;;5030140;28;20025;-48
2021/01/09 04:00:12;;;;;;;14.10;8.98;;;0.50;99.90;;;;;;5029979;28;20029;-48
2021/01/09 04:02:39;;;;;;;14.63;9.00;;;0.40;99.90;;;;;;5033877;28;20052;-49
2021/01/09 04:05:09;;;;;;;14.75;9.73;;;0.40;99.90;;;;;;5042219;28;20021;-49
2021/01/09 04:07:35;;;;;;;14.13;9.10;;;0.40;99.90;;;;;;5034703;28;20411;-50
2021/01/09 04:10:01;;;;;;;12.88;9.13;;;0.40;99.90;;;;;;5032184;28;20025;-49
2021/01/09 04:12:27;;;;;;;14.25;8.98;;;0.50;99.90;;;;;;5032254;28;20029;-48
2021/01/09 04:14:52;;;;;;;14.88;9.63;;;0.40;99.90;;;;;;5039449;28;20040;-49
2021/01/09 04:17:18;;;;;;;12.85;8.13;;;0.40;99.90;;;;;;5029611;28;20047;-50
2021/01/09 04:19:44;;;;;;;12.48;8.55;;;0.50;99.90;;;;;;5032522;28;20648;-48
2021/01/09 04:22:09;;;;;;;13.55;9.10;;;0.50;99.90;;;;;;5024312;28;20029;-48
2021/01/09 04:24:35;;;;;;;13.25;8.95;;;0.50;99.90;;;;;;5034311;28;20024;-48
2021/01/09 04:27:02;;;;;;;12.80;8.35;;;0.50;99.90;;;;;;5035925;28;20029;-48
2021/01/09 04:29:29;;;;;;;12.70;9.13;;;0.40;99.90;;;;;;5026951;28;20022;-48
2021/01/09 04:31:55;;;;;;;13.60;8.82;;;0.50;99.90;;;;;;5026219;28;20083;-50
2021/01/09 04:34:21;;;;;;;14.77;9.85;;;0.50;99.90;;;;;;5027119;28;20025;-52
2021/01/09 04:36:47;;;;;;;12.55;9.35;;;0.50;99.90;;;;;;5024816;28;20035;-51
2021/01/09 04:39:14;;;;;;;12.05;8.68;;;0.50;99.90;;;;;;5025968;28;20033;-48
2021/01/09 04:41:40;;;;;;;11.60;8.18;;;0.40;99.90;;;;;;5036458;28;20072;-51
2021/01/09 04:44:08;;;;;;;14.98;9.82;;;0.40;99.90;;;;;;5035980;28;20030;-48
2021/01/09 04:46:54;;;;;;;13.63;9.45;;;0.40;99.90;;;;;;5034105;28;20720;-48
2021/01/09 04:49:22;;;;;;;12.95;9.80;;;0.40;99.90;;;;;;5028286;28;20093;-50
2021/01/09 04:51:49;;;;;;;11.82;8.57;;;0.40;99.90;;;;;;5020331;28;20091;-48
2021/01/09 04:54:17;;;;;;;13.50;9.05;;;0.40;99.90;;;;;;5025438;28;20112;-48
2021/01/09 04:56:44;;;;;;;10.93;8.63;;;0.50;99.90;;;;;;5013961;28;20120;-49
2021/01/09 04:59:14;;;;;;;13.50;9.20;;;0.50;99.90;;;;;;5015844;28;20139;-48
2021/01/09 05:01:45;;;;;;;12.52;8.88;;;0.50;99.90;;;;;;5029899;28;20492;-48
2021/01/09 05:04:15;;;;;;;13.32;9.00;;;0.40;99.90;;;;;;5029375;28;20025;-48
2021/01/09 05:06:42;;;;;;;12.95;9.40;;;0.40;99.90;;;;;;5024677;28;20496;-49
2021/01/09 05:09:09;;;;;;;13.63;9.18;;;0.40;99.90;;;;;;5030501;28;20045;-48
2021/01/09 05:11:36;;;;;;;11.35;8.52;;;0.40;99.90;;;;;;5038646;28;20029;-49
2021/01/09 05:14:06;;;;;;;14.93;9.50;;;0.40;99.90;;;;;;5035491;28;20025;-48
2021/01/09 05:16:33;;;;;;;15.48;10.05;;;0.40;99.90;;;;;;5031238;28;20192;-48
2021/01/09 05:18:59;;;;;;;13.70;9.57;;;0.40;99.90;;;;;;5028834;28;20033;-51
2021/01/09 05:21:27;;;;;;;16.05;10.27;;;0.40;99.90;;;;;;5028111;28;20079;-48
2021/01/09 05:23:57;;;;;;;15.27;9.60;;;0.40;99.90;;;;;;5028953;28;20641;-49
2021/01/09 05:26:23;;;;;;;13.30;9.40;;;0.40;99.90;;;;;;5028661;28;20029;-50
2021/01/09 05:28:54;;;;;;;14.15;10.18;;;0.40;99.90;;;;;;5043093;28;20021;-48
2021/01/09 05:31:22;;;;;;;12.80;9.43;;;0.40;99.90;;;;;;5039776;28;20040;-50
2021/01/09 05:33:48;;;;;;;14.45;9.07;;;0.40;99.90;;;;;;5033573;28;20495;-48
2021/01/09 05:36:14;;;;;;;14.85;9.85;;;0.40;99.90;;;;;;5027246;28;20033;-50
2021/01/09 05:38:41;;;;;;;15.02;9.82;;;0.40;99.90;;;;;;5046138;28;20089;-50
2021/01/09 05:41:09;;;;;;;16.45;10.55;;;0.40;99.90;;;;;;5039888;28;20082;-50
2021/01/09 05:43:36;;;;;;;13.93;9.43;;;0.30;99.90;;;;;;5034427;28;20031;-48
2021/01/09 05:46:04;;;;;;;13.70;9.38;;;0.30;99.90;;;;;;5032240;28;20048;-52
2021/01/09 05:48:32;;;;;;;13.63;9.20;;;0.30;99.90;;;;;;5032249;28;20113;-51
2021/01/09 05:51:02;;;;;;;13.88;9.45;;;0.30;99.90;;;;;;5044994;28;20387;-50
2021/01/09 05:53:47;;;;;;;14.93;10.23;;;0.30;99.90;;;;;;5039901;28;20032;-51
2021/01/09 05:56:20;;;;;;;16.92;10.35;;;0.30;99.90;;;;;;5033814;28;20031;-48
2021/01/09 05:58:47;;;;;;;14.10;10.43;;;0.30;99.90;;;;;;5030687;28;20083;-50
2021/01/09 06:01:13;;;;;;;16.65;9.25;;;0.30;99.90;;;;;;5036717;28;20025;-49
2021/01/09 06:03:40;;;;;;;13.60;9.10;;;0.20;99.90;;;;;;5030933;28;20030;-48
2021/01/09 06:06:22;;;;;;;12.50;9.18;;;0.30;99.90;;;;;;5031497;28;20033;-48
2021/01/09 06:08:53;;;;;;;14.60;9.15;;;0.30;99.90;;;;;;5026585;28;20479;-48
2021/01/09 06:11:28;;;;;;;14.50;10.23;;;0.30;99.90;;;;;;5033745;28;20040;-48
2021/01/09 06:13:58;;;;;;;15.95;10.20;;;0.30;99.90;;;;;;5033897;28;20395;-50
2021/01/09 06:16:25;;;;;;;17.13;10.77;;;0.30;99.90;;;;;;5028929;28;20090;-48
2021/01/09 06:18:52;;;;;;;15.80;9.63;;;0.30;99.90;;;;;;5027971;28;20018;-49
2021/01/09 06:21:18;;;;;;;13.10;8.70;;;0.30;99.90;;;;;;5028196;28;20060;-50
2021/01/09 06:23:45;;;;;;;14.05;9.05;;;0.30;99.90;;;;;;5037493;28;20052;-48
2021/01/09 06:26:14;;;;;;;12.77;9.05;;;0.20;99.90;;;;;;5027293;28;20052;-53
2021/01/09 06:28:45;;;;;;;14.20;9.43;;;0.20;99.90;;;;;;5029858;28;20035;-50
2021/01/09 06:31:17;;;;;;;15.73;9.90;;;0.20;99.90;;;;;;5031605;28;20045;-50
2021/01/09 06:33:45;;;;;;;15.77;9.82;;;0.20;99.90;;;;;;5028497;28;20406;-50
2021/01/09 06:36:13;;;;;;;15.93;9.85;;;0.10;99.90;;;;;;5028041;28;20028;-50
2021/01/09 06:38:40;;;;;;;14.43;9.00;;;0.20;99.90;;;;;;5029338;28;20067;-48
2021/01/09 06:41:13;;;;;;;12.65;9.10;;;0.10;99.90;;;;;;5035552;28;20032;-48
2021/01/09 06:43:43;;;;;;;16.17;9.27;;;0.10;99.90;;;;;;5034545;28;20026;-48
2021/01/09 06:46:10;;;;;;;17.10;10.20;;;0.10;99.90;;;;;;5031915;28;20059;-51
2021/01/09 06:48:36;;;;;;;12.40;9.18;;;0.00;99.90;;;;;;5032471;28;20096;-48
2021/01/09 06:51:22;;;;;;;14.35;9.95;;;0.10;99.90;;;;;;5028940;28;20677;-51
2021/01/09 06:54:28;;;;;;;14.60;9.00;;;0.00;99.90;;;;;;5034199;28;20037;-52
2021/01/09 06:57:03;;;;;;;15.63;8.80;;;0.10;99.90;;;;;;5025794;28;20143;-49
2021/01/09 06:59:52;;;;;;;15.10;9.48;;;0.10;99.90;;;;;;5028722;28;20082;-51
2021/01/09 07:02:27;;;;;;;16.27;9.75;;;0.10;99.90;;;;;;5034917;28;20033;-53
2021/01/09 07:04:59;;;;;;;14.13;9.18;;;0.00;99.90;;;;;;5040936;28;20025;-48
2021/01/09 07:07:27;;;;;;;15.80;10.35;;;0.00;99.90;;;;;;5031324;28;20053;-51
2021/01/09 07:10:17;;;;;;;17.55;9.75;;;0.00;99.90;;;;;;5028610;28;20056;-53
2021/01/09 07:12:48;;;;;;;17.75;9.48;;;0.10;99.90;;;;;;5019010;28;20045;-48
2021/01/09 07:15:16;;;;;;;16.85;10.27;;;0.10;99.90;;;;;;5034668;28;20037;-51
2021/01/09 07:17:49;;;;;;;14.80;9.38;;;0.00;99.90;;;;;;5027993;28;20029;-49
2021/01/09 07:20:18;;;;;;;18.38;10.45;;;0.10;99.90;;;;;;5030694;28;20109;-49
2021/01/09 07:22:48;;;;;;;18.35;10.40;;;0.10;99.90;;;;;;5031773;28;20509;-50
2021/01/09 07:25:23;;;;;;;16.65;10.65;;;0.10;99.90;;;;;;5032885;28;20025;-48
2021/01/09 07:27:50;;;;;;;16.17;10.23;;;0.10;99.90;;;;;;5039701;28;20391;-48
2021/01/09 07:30:18;;;;;;;14.63;9.43;;;0.10;99.90;;;;;;5037217;28;20022;-48
2021/01/09 07:32:49;;;;;;;15.85;10.07;;;0.00;99.90;;;;;;5036243;28;20021;-48
2021/01/09 07:35:45;;;;;;;14.55;9.95;;;0.00;99.90;;;;;;5027566;28;20033;-49
2021/01/09 07:38:12;;;;;;;14.35;9.18;;;0.10;99.90;;;;;;5015273;28;20030;-48
2021/01/09 07:40:46;;;;;;;19.98;10.35;;;0.10;99.90;;;;;;5023054;28;20063;-49
2021/01/09 07:43:44;;;;;;;17.02;9.95;;;0.10;99.90;;;;;;5041044;28;20391;-49
2021/01/09 07:46:32;;;;;;;12.77;8.77;;;0.10;99.90;;;;;;5033739;28;20079;-48
2021/01/09 07:48:59;;;;;;;15.70;9.27;;;0.10;99.90;;;;;;5023973;28;20025;-50
2021/01/09 07:51:50;;;;;;;17.35;10.38;;;0.10;99.90;;;;;;5047450;28;20029;-48
2021/01/09 07:54:39;;;;;;;18.98;9.90;;;0.10;99.90;;;;;;5034972;28;20082;-49
2021/01/09 07:57:21;;;;;;;18.70;10.30;;;0.10;99.90;;;;;;5035010;28;20029;-52
2021/01/09 07:59:59;;;;;;;17.73;10.80;;;0.10;99.90;;;;;;5027538;28;20091;-49
2021/01/09 08:02:26;;;;;;;16.15;10.52;;;0.10;99.90;;;;;;5042199;28;20029;-49
2021/01/09 08:05:19;;;;;;;14.25;9.05;;;0.10;99.90;;;;;;5037223;28;20041;-51
2021/01/09 08:07:51;;;;;;;16.33;9.77;;;0.20;99.90;;;;;;5012933;28;20026;-48
2021/01/09 08:10:20;;;;;;;16.17;9.88;;;0.20;99.90;;;;;;5013990;28;20030;-49
2021/01/09 08:12:51;;;;;;;17.10;10.48;;;0.10;99.90;;;;;;5034195;28;20084;-48
2021/01/09 08:15:17;;;;;;;15.93;9.82;;;0.20;99.90;;;;;;5029299;28;20057;-50
2021/01/09 08:17:42;;;;;;;17.67;10.82;;;0.20;99.90;;;;;;5029615;28;20088;-50
2021/01/09 08:20:10;;;;;;;15.35;9.07;;;0.20;99.90;;;;;;5032602;28;20022;-48
2021/01/09 08:22:37;;;;;;;15.63;10.30;;;0.20;99.90;;;;;;5032628;28;20693;-49
2021/01/09 08:25:10;;;;;;;18.95;11.50;;;0.20;99.90;;;;;;5033844;28;20648;-51
2021/01/09 08:27:46;;;;;;;14.57;9.88;;;0.20;99.90;;;;;;5030011;28;20025;-49
2021/01/09 08:30:14;;;;;;;16.05;9.15;;;0.20;99.90;;;;;;5033162;28;20029;-49
2021/01/09 08:32:40;;;;;;;17.77;10.07;;;0.20;99.90;;;;;;5027416;28;20036;-50
2021/01/09 08:35:07;;;;;;;16.52;10.43;;;0.20;99.90;;;;;;5029282;28;20068;-48
2021/01/09 08:37:34;;;;;;;20.05;10.73;;;0.20;99.90;;;;;;5040721;28;20105;-49
2021/01/09 08:40:12;;;;;;;17.45;10.15;;;0.30;99.90;;;;;;5037247;28;20040;-51
2021/01/09 08:42:50;;;;;;;14.60;9.48;;;0.30;99.90;;;;;;5033387;28;20498;-51
2021/01/09 08:45:16;;;;;;;20.38;10.98;;;0.30;99.90;;;;;;5030555;28;20048;-48
2021/01/09 08:47:43;;;;;;;14.57;10.00;;;0.30;99.90;;;;;;5024244;28;20025;-49
2021/01/09 08:50:12;;;;;;;15.45;9.35;;;0.30;99.90;;;;;;5010355;28;20055;-48
2021/01/09 08:52:43;;;;;;;16.48;9.82;;;0.30;99.90;;;;;;5010040;28;20026;-49
2021/01/09 08:55:10;;;;;;;22.05;11.65;;;0.40;99.90;;;;;;5016590;28;20600;-51
2021/01/09 08:57:36;;;;;;;16.33;10.50;;;0.40;99.90;;;;;;5072911;22;20094;-56
2021/01/09 09:00:03;;;;;;;21.15;10.63;;;0.40;99.90;;;;;;5067018;28;20029;-59
2021/01/09 09:02:33;;;;;;;17.13;11.02;;;0.40;99.90;;;;;;5068757;28;20375;-59
2021/01/09 09:05:02;;;;;;;16.27;10.40;;;0.40;99.90;;;;;;5068140;28;20122;-58
2021/01/09 09:07:31;;;;;;;15.75;9.88;;;0.40;99.90;;;;;;5067958;28;20021;-61
2021/01/09 09:10:00;;;;;;;14.82;9.25;;;0.40;99.90;;;;;;5068001;28;20098;-59
2021/01/09 09:12:25;;;;;;;15.10;9.13;;;0.40;99.90;;;;;;5067875;28;20531;-58
2021/01/09 09:14:55;;;;;;;15.00;10.35;;;0.50;99.90;;;;;;5065078;28;20032;-59
2021/01/09 09:17:21;;;;;;;17.92;11.45;;;0.50;99.90;;;;;;5066296;28;20020;-59
2021/01/09 09:19:46;;;;;;;17.10;10.82;;;0.50;99.90;;;;;;5067050;28;20505;-58
2021/01/09 09:22:12;;;;;;;14.98;9.25;;;0.50;99.90;;;;;;5062417;28;20046;-58
2021/01/09 09:24:42;;;;;;;19.15;10.85;;;0.50;99.90;;;;;;5066346;28;20055;-60
2021/01/09 09:27:29;;;;;;;15.93;10.35;;;0.50;99.90;;;;;;5067572;28;20032;-59
2021/01/09 09:30:10;;;;;;;;;;;0.50;99.90;;;;;;5068635;28;20111;-58
2021/01/09 09:32:37;;;;;;;16.92;9.38;;;0.50;99.90;;;;;;5067313;28;19915;-59
2021/01/09 09:35:23;;;;;;;18.90;11.18;;;0.50;99.90;;;;;;5064687;28;20555;-58
2021/01/09 09:37:49;;;;;;;16.27;9.57;;;0.50;99.90;;;;;;5068220;28;20020;-59
2021/01/09 09:40:28;;;;;;;19.17;11.23;;;0.50;99.90;;;;;;5067560;28;20020;-58
2021/01/09 09:42:54;;;;;;;15.70;9.48;;;0.50;99.90;;;;;;5067948;28;20029;-58
2021/01/09 09:45:21;;;;;;;15.45;9.52;;;0.50;99.90;;;;;;5067355;28;20110;-58
2021/01/09 09:47:48;;;;;;;15.57;10.32;;;0.60;99.90;;;;;;5067165;28;20025;-60
2021/01/09 09:50:21;;;;;;;18.17;10.50;;;0.60;99.90;;;;;;5066540;28;20051;-59
2021/01/09 09:53:05;;;;;;;17.02;10.63;;;0.60;99.90;;;;;;5067349;28;20027;-59
2021/01/09 09:55:30;;;;;;;16.88;9.48;;;0.50;99.90;;;;;;5066519;28;20074;-57
2021/01/09 09:58:09;;;;;;;17.92;9.15;;;0.60;99.90;;;;;;5067325;28;20441;-59
2021/01/09 10:00:44;;;;;;;18.10;9.70;;;0.50;99.90;;;;;;5067556;28;20027;-58
2021/01/09 10:03:11;;;;;;;17.83;10.98;;;0.60;99.90;;;;;;5067161;28;20579;-58
2021/01/09 10:05:36;;;;;;;17.13;10.10;;;0.50;99.90;;;;;;5067430;28;20628;-59
2021/01/09 10:08:13;;;;;;;17.25;10.55;;;0.50;99.90;;;;;;5067386;28;20029;-60
2021/01/09 10:10:38;;;;;;;;;;;0.60;99.90;;;;;;5068011;28;20029;-58
2021/01/09 10:13:04;;;;;;;16.27;8.90;;;0.60;99.90;;;;;;5067912;28;19911;-59
2021/01/09 10:15:30;;;;;;;16.27;9.48;;;0.60;99.90;;;;;;5062342;28;20024;-60
2021/01/09 10:17:57;;;;;;;15.55;10.05;;;0.70;99.90;;;;;;5067355;28;20016;-60
2021/01/09 10:20:22;;;;;;;20.23;11.13;;;0.70;99.90;;;;;;5067995;28;20043;-59
2021/01/09 10:22:48;;;;;;;18.35;11.23;;;0.70;99.90;;;;;;5067510;28;20513;-59
2021/01/09 10:25:14;;;;;;;17.17;10.73;;;0.80;99.90;;;;;;5065327;28;20549;-58
2021/01/09 10:27:39;;;;;;;15.35;9.63;;;0.70;99.90;;;;;;5067399;28;20052;-58
2021/01/09 10:30:06;;;;;;;18.50;10.43;;;0.70;99.90;;;;;;5066402;28;20600;-58
2021/01/09 10:32:31;;;;;;;18.80;11.40;;;0.70;99.90;;;;;;5066229;28;20711;-58
2021/01/09 10:34:57;;;;;;;19.77;10.30;;;0.70;99.90;;;;;;5064034;28;20048;-58
2021/01/09 10:37:23;;;;;;;17.20;10.80;;;0.70;99.90;;;;;;5067243;28;20096;-57
2021/01/09 10:39:49;;;;;;;17.25;10.52;;;0.70;99.90;;;;;;5067034;28;20115;-59
2021/01/09 10:42:14;;;;;;;17.77;10.63;;;0.70;99.90;;;;;;5050621;28;20048;-60
2021/01/09 10:44:40;;;;;;;16.73;10.73;;;0.70;99.90;;;;;;5050080;28;20127;-61
2021/01/09 10:47:06;;;;;;;18.20;10.77;;;0.70;99.90;;;;;;5049769;28;20025;-57
2021/01/09 10:49:31;;;;;;;20.65;10.65;;;0.70;99.90;;;;;;5050283;28;20495;-59
2021/01/09 10:51:57;;;;;;;15.88;10.10;;;0.70;99.90;;;;;;5052278;28;20017;-59
2021/01/09 10:54:22;;;;;;;20.88;11.45;;;0.80;99.90;;;;;;5049675;28;20036;-59
2021/01/09 10:56:48;;;;;;;18.40;10.98;;;0.80;99.90;;;;;;5051154;28;20033;-58
2021/01/09 10:59:14;;;;;;;20.55;11.10;;;0.80;99.90;;;;;;5050234;28;20032;-58
2021/01/09 11:01:39;;;;;;;16.40;10.57;;;0.80;99.90;;;;;;5049793;28;20021;-58
2021/01/09 11:04:05;;;;;;;17.45;10.75;;;0.80;99.90;;;;;;5052327;28;20609;-60
2021/01/09 11:06:31;;;;;;;17.65;10.30;;;0.80;99.90;;;;;;5050056;28;20045;-59
2021/01/09 11:08:56;;;;;;;20.90;11.88;;;0.80;99.90;;;;;;5053988;28;20078;-60
2021/01/09 11:11:22;;;;;;;19.33;11.10;;;0.80;99.90;;;;;;5059568;28;20021;-60
2021/01/09 11:13:48;;;;;;;17.58;10.48;;;0.90;99.90;;;;;;5070084;28;20025;-59
2021/01/09 11:16:21;;;;;;;16.63;9.65;;;0.90;99.90;;;;;;5069455;28;20017;-60
2021/01/09 11:18:47;;;;;;;17.13;9.70;;;0.90;99.90;;;;;;5070932;28;20024;-60
2021/01/09 11:21:18;;;;;;;17.15;10.73;;;1.00;99.90;;;;;;5070542;28;20479;-61
2021/01/09 11:23:44;;;;;;;18.90;10.25;;;1.00;99.90;;;;;;5069689;28;20021;-60
2021/01/09 11:26:20;;;;;;;17.73;11.32;;;1.10;99.90;;;;;;5067399;28;20497;-60
2021/01/09 11:28:46;;;;;;;;;;;1.10;99.90;;;;;;5070003;28;20423;-59
2021/01/09 11:31:11;;;;;;;15.97;9.53;;;1.10;99.90;;;;;;5070503;28;19963;-60
2021/01/09 11:33:37;;;;;;;16.50;9.57;;;1.10;99.90;;;;;;5070997;28;20495;-60
2021/01/09 11:36:03;;;;;;;15.52;9.85;;;1.10;99.90;;;;;;5063487;28;20051;-59
2021/01/09 11:38:28;;;;;;;15.18;9.48;;;1.10;99.90;;;;;;5070707;28;20009;-60
2021/01/09 11:40:54;;;;;;;15.63;9.80;;;1.10;99.90;;;;;;5070681;28;20032;-59
2021/01/09 11:43:20;;;;;;;16.70;10.02;;;1.10;99.90;;;;;;5065843;28;20081;-59
2021/01/09 11:45:45;;;;;;;16.52;10.27;;;1.10;99.90;;;;;;5068638;28;20153;-60
2021/01/09 11:48:11;;;;;;;18.20;10.85;;;1.10;99.90;;;;;;5069410;28;20039;-59
2021/01/09 11:50:37;;;;;;;16.30;9.88;;;1.10;99.90;;;;;;5053926;28;20013;-59
2021/01/09 11:53:02;;;;;;;16.23;10.05;;;1.10;99.90;;;;;;5052795;28;20040;-61
2021/01/09 11:55:28;;;;;;;17.58;9.80;;;1.10;99.90;;;;;;5065553;28;20021;-58
2021/01/09 11:57:54;;;;;;;14.15;9.00;;;1.00;99.90;;;;;;5052448;28;20043;-60
2021/01/09 12:00:20;;;;;;;15.25;9.45;;;1.00;99.90;;;;;;5059249;28;20040;-60
2021/01/09 12:02:45;;;;;;;19.27;10.60;;;1.00;99.90;;;;;;5068891;28;20016;-59
2021/01/09 12:05:11;;;;;;;16.45;10.00;;;1.00;99.90;;;;;;5067266;28;20056;-59
2021/01/09 12:07:37;;;;;;;15.68;9.70;;;1.10;99.90;;;;;;5068489;28;20032;-56
2021/01/09 12:10:03;;;;;;;17.27;10.73;;;1.10;99.90;;;;;;5067169;28;20086;-59
2021/01/09 12:12:29;;;;;;;17.95;11.15;;;1.10;99.90;;;;;;5067733;28;20025;-59
2021/01/09 12:14:55;;;;;;;17.33;10.77;;;1.10;99.90;;;;;;5063087;28;20036;-56
2021/01/09 12:17:20;;;;;;;16.20;9.93;;;1.10;99.90;;;;;;5053351;28;20017;-58
2021/01/09 12:19:46;;;;;;;17.27;10.48;;;1.10;99.90;;;;;;5067733;28;20536;-59
2021/01/09 12:22:11;;;;;;;15.70;9.85;;;1.10;99.90;;;;;;5065788;28;20036;-58
2021/01/09 12:24:37;;;;;;;17.55;11.30;;;1.10;99.90;;;;;;5065485;28;20068;-56
2021/01/09 12:27:03;;;;;;;17.38;11.38;;;1.10;99.90;;;;;;5058423;28;20028;-57
2021/01/09 12:29:28;;;;;;;16.55;10.43;;;1.10;99.90;;;;;;5060120;28;20033;-60
2021/01/09 12:31:54;;;;;;;17.75;10.98;;;1.10;99.90;;;;;;5056341;28;20021;-59
2021/01/09 12:34:20;;;;;;;17.60;10.18;;;1.10;99.90;;;;;;5057957;28;20029;-60
2021/01/09 12:36:50;;;;;;;19.17;12.20;;;1.10;99.90;;;;;;5067984;28;20025;-57
2021/01/09 12:39:16;;;;;;;15.93;10.48;;;1.10;99.90;;;;;;5065809;28;20031;-58
2021/01/09 12:41:42;;;;;;;19.98;12.85;;;1.20;99.90;;;;;;5065935;28;20025;-58
2021/01/09 12:44:08;;;;;;;21.23;14.05;;;1.20;99.90;;;;;;5051555;28;20029;-58
2021/01/09 12:46:44;;;;;;;22.00;13.32;;;1.20;99.90;;;;;;5052678;28;20697;-58
2021/01/09 12:49:14;;;;;;;19.95;12.73;;;1.20;99.90;;;;;;5064559;28;20085;-57
2021/01/09 12:51:41;;;;;;;22.40;13.57;;;1.10;99.90;;;;;;5057458;28;20091;-60
2021/01/09 12:54:07;;;;;;;18.85;12.80;;;1.10;99.90;;;;;;5051411;28;20025;-60